createdAt,value
2023-02-15T08:32:48.873Z,18.00
2023-02-15T08:47:50.208Z,22.53
2023-02-15T08:52:43.676Z,20.30
2023-02-15T08:57:38.221Z,18.33
2023-02-15T09:02:32.144Z,19.00
2023-02-15T09:14:31.580Z,17.77
2023-02-15T09:24:46.131Z,18.17
2023-02-15T09:29:40.264Z,18.53
2023-02-15T09:34:35.094Z,17.70
2023-02-15T09:39:29.728Z,18.60
2023-02-15T09:44:35.486Z,19.20
2023-02-15T09:49:38.814Z,19.40
2023-02-15T09:54:52.987Z,19.60
2023-02-15T09:59:59.761Z,19.10
2023-02-15T10:05:08.015Z,20.60
2023-02-15T10:10:16.670Z,19.63
2023-02-15T10:15:29.694Z,20.47
2023-02-15T10:20:31.232Z,19.77
2023-02-15T10:25:37.743Z,19.53
2023-02-15T10:30:42.203Z,19.57
2023-02-15T10:35:49.125Z,25.17
2023-02-15T10:40:52.146Z,19.87
2023-02-15T10:45:58.195Z,20.07
2023-02-15T10:50:53.724Z,19.60
2023-02-15T10:55:57.438Z,19.20
2023-02-15T11:01:02.465Z,18.53
2023-02-15T11:06:05.026Z,18.03
2023-02-15T11:11:03.562Z,18.03
2023-02-15T11:16:02.094Z,17.50
2023-02-15T11:20:58.886Z,18.03
2023-02-15T11:25:58.839Z,17.63
2023-02-15T11:31:00.649Z,16.47
2023-02-15T11:35:59.853Z,18.13
2023-02-15T11:40:57.693Z,16.47
2023-02-15T11:45:51.361Z,16.17
2023-02-15T11:50:47.413Z,16.50
2023-02-15T11:55:41.221Z,16.67
2023-02-15T12:00:38.058Z,17.47
2023-02-15T12:05:32.683Z,16.57
2023-02-15T12:10:30.559Z,16.73
2023-02-15T12:15:36.452Z,16.47
2023-02-15T12:20:34.562Z,16.60
2023-02-15T12:25:35.605Z,17.73
2023-02-15T12:30:35.162Z,18.60
2023-02-15T12:35:32.093Z,19.57
2023-02-15T12:40:31.319Z,19.40
2023-02-15T12:45:29.002Z,20.37
2023-02-15T12:50:34.537Z,20.53
2023-02-15T12:55:31.040Z,19.83
2023-02-15T13:00:33.052Z,20.43
2023-02-15T13:05:32.033Z,20.03
2023-02-15T13:10:29.865Z,22.77
2023-02-15T13:15:33.889Z,22.33
2023-02-15T13:20:28.766Z,22.53
2023-02-15T13:25:25.434Z,22.40
2023-02-15T13:30:27.553Z,22.10
2023-02-15T13:35:24.198Z,23.43
2023-02-15T13:40:24.741Z,25.93
2023-02-15T13:45:39.030Z,23.40
2023-02-15T13:51:06.214Z,24.57
2023-02-15T13:56:08.776Z,23.00
2023-02-15T14:01:11.036Z,23.47
2023-02-15T14:06:38.797Z,23.10
2023-02-15T14:11:40.574Z,24.23
2023-02-15T14:16:47.990Z,23.50
2023-02-15T14:21:54.062Z,24.23
2023-02-15T14:26:55.049Z,23.97
2023-02-15T14:31:52.745Z,23.43
2023-02-15T14:36:48.244Z,23.83
2023-02-15T14:41:46.733Z,23.93
2023-02-15T14:46:48.268Z,24.93
2023-02-15T14:57:27.702Z,25.50
2023-02-15T15:02:25.639Z,25.43
2023-02-15T15:07:23.409Z,24.47
2023-02-15T15:12:41.259Z,26.60
2023-02-15T15:17:58.550Z,27.13
2023-02-15T15:22:52.845Z,26.93
2023-02-15T15:27:57.532Z,26.90
2023-02-15T15:33:01.324Z,28.47
2023-02-15T15:38:13.073Z,28.23
2023-02-15T15:43:45.430Z,28.53
2023-02-15T15:48:40.664Z,27.67
2023-02-15T15:53:43.665Z,28.73
2023-02-15T15:58:43.731Z,27.10
2023-02-15T16:03:40.554Z,28.37
2023-02-15T16:08:36.202Z,28.90
2023-02-15T16:13:30.152Z,27.57
2023-02-15T16:18:28.814Z,28.73
2023-02-15T16:23:52.544Z,34.80
2023-02-15T16:28:51.286Z,37.67
2023-02-15T16:33:47.950Z,38.60
2023-02-15T16:39:13.638Z,36.53
2023-02-15T16:44:14.529Z,37.87
2023-02-15T16:49:18.861Z,31.77
